Time;durP1;ratioP1;P1;durP2;ratioP2;P2;SDS_P1;SDS_P2;PMS_P1;PMS_P2;Temp;Humidity;BMP_temperature;BMP_pressure;BME280_temperature;BME280_humidity;BME280_pressure;Samples;Min_cycle;Max_cycle;Signal;HPM_P1;HPM_P2
2024/01/03 00:00:25;;;;;;;19.92;12.57;;;;;;;;;;6284591;28;20053;-83
2024/01/03 00:03:31;;;;;;;19.15;13.32;;;;;;;;;;6247666;28;20053;-83
2024/01/03 00:06:34;;;;;;;20.13;12.52;;;;;;;;;;6252831;28;20057;-83
2024/01/03 00:09:36;;;;;;;22.20;14.43;;;;;;;;;;6250807;28;20071;-82
2024/01/03 00:12:38;;;;;;;25.35;15.43;;;;;;;;;;6253056;28;20110;-83
2024/01/03 00:16:08;;;;;;;24.65;15.60;;;;;;;;;;6253129;28;20042;-83
2024/01/03 00:19:18;;;;;;;26.90;16.38;;;;;;;;;;6227963;28;20062;-83
2024/01/03 00:22:20;;;;;;;26.00;16.30;;;;;;;;;;6227378;28;20052;-82
2024/01/03 00:25:24;;;;;;;26.33;16.15;;;;;;;;;;6228217;28;20054;-76
2024/01/03 00:28:26;;;;;;;28.27;16.70;;;;;;;;;;6226651;28;20050;-76
2024/01/03 00:31:38;;;;;;;25.83;16.63;;;;;;;;;;6233513;28;20061;-75
2024/01/03 00:34:42;;;;;;;24.02;16.08;;;;;;;;;;6232632;28;20169;-76
2024/01/03 00:37:46;;;;;;;26.27;15.77;;;;;;;;;;6231320;28;20050;-76
2024/01/03 00:40:52;;;;;;;23.55;15.48;;;;;;;;;;6230572;28;20069;-75
2024/01/03 00:43:54;;;;;;;22.35;15.02;;;;;;;;;;6230086;28;20053;-76
2024/01/03 00:46:56;;;;;;;23.48;14.43;;;;;;;;;;6231284;28;20060;-76
2024/01/03 00:49:59;;;;;;;21.65;15.13;;;;;;;;;;6231371;28;20276;-75
2024/01/03 00:53:01;;;;;;;22.58;14.70;;;;;;;;;;6231678;28;20057;-75
2024/01/03 00:56:03;;;;;;;20.13;13.30;;;;;;;;;;6229927;28;20060;-75
2024/01/03 00:59:05;;;;;;;19.63;13.07;;;;;;;;;;6232172;28;20064;-75
2024/01/03 01:02:07;;;;;;;18.30;12.48;;;;;;;;;;6230189;28;20057;-75
2024/01/03 01:05:11;;;;;;;22.55;12.75;;;;;;;;;;6229377;28;20058;-75
2024/01/03 01:08:13;;;;;;;16.83;12.32;;;;;;;;;;6231250;28;20113;-75
2024/01/03 01:11:15;;;;;;;18.73;12.18;;;;;;;;;;6231687;28;20069;-75
2024/01/03 01:14:17;;;;;;;16.75;12.20;;;;;;;;;;6230723;28;20323;-74
2024/01/03 01:17:18;;;;;;;20.05;12.48;;;;;;;;;;6230914;28;20077;-75
2024/01/03 01:20:22;;;;;;;18.73;11.57;;;;;;;;;;6232284;28;20050;-76
2024/01/03 01:23:24;;;;;;;19.63;12.85;;;;;;;;;;6213090;28;20058;-75
2024/01/03 01:26:26;;;;;;;18.85;12.20;;;;;;;;;;6232952;28;20060;-75
2024/01/03 01:29:28;;;;;;;17.83;12.15;;;;;;;;;;6230076;28;20073;-75
2024/01/03 01:32:30;;;;;;;18.10;12.63;;;;;;;;;;6230396;28;20057;-74
2024/01/03 01:35:33;;;;;;;20.30;12.90;;;;;;;;;;6229841;28;20046;-75
2024/01/03 01:38:35;;;;;;;18.38;12.25;;;;;;;;;;6232370;28;20056;-75
2024/01/03 01:41:37;;;;;;;20.23;12.90;;;;;;;;;;6231462;28;20053;-75
2024/01/03 01:44:39;;;;;;;18.95;11.68;;;;;;;;;;6229418;28;20109;-75
2024/01/03 01:47:42;;;;;;;19.67;12.45;;;;;;;;;;6231439;28;20046;-75
2024/01/03 01:50:46;;;;;;;18.33;12.60;;;;;;;;;;6206039;28;20050;-75
2024/01/03 01:53:48;;;;;;;16.70;11.40;;;;;;;;;;6213511;28;20069;-75
2024/01/03 01:56:51;;;;;;;19.77;11.40;;;;;;;;;;6229490;28;20053;-75
2024/01/03 01:59:52;;;;;;;16.63;11.35;;;;;;;;;;6262773;28;20054;-75
2024/01/03 02:02:54;;;;;;;17.35;11.65;;;;;;;;;;6230399;28;20052;-74
2024/01/03 02:05:58;;;;;;;17.55;11.40;;;;;;;;;;6228140;28;20264;-75
2024/01/03 02:09:00;;;;;;;17.55;11.27;;;;;;;;;;6230365;28;20064;-76
2024/01/03 02:12:02;;;;;;;17.35;10.40;;;;;;;;;;6247926;28;20061;-75
2024/01/03 02:15:04;;;;;;;16.05;10.95;;;;;;;;;;6253341;28;20248;-74
2024/01/03 02:18:07;;;;;;;14.48;10.20;;;;;;;;;;6236143;28;20054;-74
2024/01/03 02:21:13;;;;;;;15.98;10.00;;;;;;;;;;6247266;28;20694;-75
2024/01/03 02:24:15;;;;;;;15.80;11.82;;;;;;;;;;6234172;28;20088;-73
2024/01/03 02:27:17;;;;;;;15.70;10.18;;;;;;;;;;6249225;28;20053;-75
2024/01/03 02:30:18;;;;;;;17.15;10.63;;;;;;;;;;6254044;28;20240;-75
2024/01/03 02:33:20;;;;;;;14.32;9.85;;;;;;;;;;6255824;28;20054;-75
2024/01/03 02:36:24;;;;;;;15.35;10.52;;;;;;;;;;6255122;28;20456;-75
2024/01/03 02:39:25;;;;;;;16.43;10.20;;;;;;;;;;6252784;28;20235;-75
2024/01/03 02:42:27;;;;;;;13.82;8.95;;;;;;;;;;6253554;28;20666;-75
2024/01/03 02:45:31;;;;;;;15.07;10.25;;;;;;;;;;6232176;28;20049;-82
2024/01/03 02:48:35;;;;;;;14.25;9.77;;;;;;;;;;6226997;28;20065;-81
2024/01/03 02:51:38;;;;;;;16.77;9.68;;;;;;;;;;6227766;28;20058;-81
2024/01/03 02:54:40;;;;;;;13.97;9.57;;;;;;;;;;6227784;28;20049;-80
2024/01/03 02:57:42;;;;;;;13.48;9.20;;;;;;;;;;6229653;28;20634;-81
2024/01/03 03:00:44;;;;;;;14.50;9.68;;;;;;;;;;6229358;28;20049;-83
2024/01/03 03:03:46;;;;;;;15.40;8.80;;;;;;;;;;6228268;28;20268;-80
2024/01/03 03:06:50;;;;;;;13.07;9.38;;;;;;;;;;6240214;28;20371;-80
2024/01/03 03:09:52;;;;;;;14.38;9.43;;;;;;;;;;6226311;28;20060;-80
2024/01/03 03:12:56;;;;;;;13.43;9.27;;;;;;;;;;6227433;28;20058;-81
2024/01/03 03:15:58;;;;;;;13.65;8.98;;;;;;;;;;6253681;28;20049;-80
2024/01/03 03:18:59;;;;;;;13.35;9.48;;;;;;;;;;6253448;28;20435;-82
2024/01/03 03:22:04;;;;;;;12.90;9.02;;;;;;;;;;6229124;28;20065;-80
2024/01/03 03:25:07;;;;;;;12.88;9.10;;;;;;;;;;6227579;28;20058;-81
2024/01/03 03:28:10;;;;;;;11.60;8.95;;;;;;;;;;6228179;28;20062;-80
2024/01/03 03:31:12;;;;;;;11.30;8.60;;;;;;;;;;6228266;28;20065;-81
2024/01/03 03:34:17;;;;;;;12.68;9.30;;;;;;;;;;6260937;28;20504;-80
2024/01/03 03:37:22;;;;;;;13.25;8.75;;;;;;;;;;6253861;28;20111;-82
2024/01/03 03:40:24;;;;;;;13.80;9.32;;;;;;;;;;6284795;28;20053;-81
2024/01/03 03:43:26;;;;;;;11.45;7.55;;;;;;;;;;6250077;28;20045;-80
2024/01/03 03:46:28;;;;;;;10.52;8.05;;;;;;;;;;6252568;28;20064;-80
2024/01/03 03:49:30;;;;;;;13.15;8.88;;;;;;;;;;6252911;28;20045;-81
2024/01/03 03:52:35;;;;;;;15.27;8.70;;;;;;;;;;6246799;28;20280;-75
2024/01/03 03:55:41;;;;;;;14.30;8.88;;;;;;;;;;6253505;28;20053;-81
2024/01/03 03:58:42;;;;;;;13.70;9.50;;;;;;;;;;6250257;28;20343;-81
2024/01/03 04:01:49;;;;;;;12.75;8.60;;;;;;;;;;6283705;28;20054;-81
2024/01/03 04:04:52;;;;;;;13.88;8.93;;;;;;;;;;6251385;28;20391;-81
2024/01/03 04:07:55;;;;;;;14.52;9.05;;;;;;;;;;6267420;28;20056;-81
2024/01/03 04:10:57;;;;;;;13.57;9.90;;;;;;;;;;6252933;28;20060;-81
2024/01/03 04:13:59;;;;;;;12.73;9.05;;;;;;;;;;6251683;28;20057;-80
2024/01/03 04:17:00;;;;;;;13.73;9.45;;;;;;;;;;6253469;28;20056;-81
2024/01/03 04:20:02;;;;;;;13.07;8.68;;;;;;;;;;6254133;28;20061;-81
2024/01/03 04:23:07;;;;;;;13.20;9.25;;;;;;;;;;6251890;28;20055;-81
2024/01/03 04:26:09;;;;;;;12.25;8.93;;;;;;;;;;6253018;28;20310;-80
2024/01/03 04:29:11;;;;;;;13.48;9.32;;;;;;;;;;6251309;28;20049;-82
2024/01/03 04:32:14;;;;;;;14.50;8.95;;;;;;;;;;6251045;28;20356;-81
2024/01/03 04:35:16;;;;;;;12.45;8.57;;;;;;;;;;6285170;28;20080;-79
2024/01/03 04:38:19;;;;;;;13.77;9.35;;;;;;;;;;6252116;28;20260;-81
2024/01/03 04:41:21;;;;;;;14.00;9.23;;;;;;;;;;6253062;28;20335;-81
2024/01/03 04:44:23;;;;;;;14.43;9.15;;;;;;;;;;6250431;28;20901;-82
2024/01/03 04:47:25;;;;;;;13.65;9.23;;;;;;;;;;6250137;28;20060;-80
2024/01/03 04:50:27;;;;;;;12.02;9.02;;;;;;;;;;6252976;28;20057;-82
2024/01/03 04:53:31;;;;;;;15.27;10.00;;;;;;;;;;6250121;28;20064;-81
2024/01/03 04:56:33;;;;;;;13.10;8.55;;;;;;;;;;6251284;28;20104;-81
2024/01/03 04:59:35;;;;;;;15.00;9.18;;;;;;;;;;6250777;28;20061;-80
2024/01/03 05:02:38;;;;;;;13.30;9.60;;;;;;;;;;6251755;28;20049;-74
2024/01/03 05:05:39;;;;;;;13.50;9.18;;;;;;;;;;6251396;28;20109;-75
2024/01/03 05:08:42;;;;;;;12.70;8.63;;;;;;;;;;6251584;28;20061;-75
2024/01/03 05:11:44;;;;;;;12.90;9.23;;;;;;;;;;6252220;28;20057;-74
2024/01/03 05:14:46;;;;;;;14.10;9.45;;;;;;;;;;6250091;28;20057;-74
2024/01/03 05:17:48;;;;;;;13.32;8.80;;;;;;;;;;6254226;28;20363;-74
2024/01/03 05:20:50;;;;;;;12.52;8.73;;;;;;;;;;6254622;28;20358;-74
2024/01/03 05:23:53;;;;;;;14.15;9.57;;;;;;;;;;6254496;28;20061;-74
2024/01/03 05:26:55;;;;;;;15.37;9.77;;;;;;;;;;6254473;28;20074;-74
2024/01/03 05:29:56;;;;;;;13.43;9.02;;;;;;;;;;6255347;28;20119;-75
2024/01/03 05:32:58;;;;;;;15.45;9.30;;;;;;;;;;6271829;28;20099;-75
2024/01/03 05:36:01;;;;;;;13.88;9.52;;;;;;;;;;6255915;28;20091;-75
2024/01/03 05:39:04;;;;;;;14.40;9.65;;;;;;;;;;6255724;28;20057;-76
2024/01/03 05:42:07;;;;;;;17.48;9.25;;;;;;;;;;6255217;28;20386;-76
2024/01/03 05:45:11;;;;;;;15.25;10.15;;;;;;;;;;6254250;28;20141;-75
2024/01/03 05:48:13;;;;;;;16.17;10.43;;;;;;;;;;6255623;28;20049;-74
2024/01/03 05:51:16;;;;;;;13.18;10.13;;;;;;;;;;6253982;28;20131;-74
2024/01/03 05:54:19;;;;;;;13.15;9.30;;;;;;;;;;6255565;28;20148;-75
2024/01/03 05:57:21;;;;;;;15.35;9.77;;;;;;;;;;6254582;28;20053;-75
2024/01/03 06:00:23;;;;;;;13.18;9.40;;;;;;;;;;6271700;28;20064;-74
2024/01/03 06:03:25;;;;;;;17.88;10.50;;;;;;;;;;6254545;28;20061;-74
2024/01/03 06:06:28;;;;;;;15.40;10.15;;;;;;;;;;6255121;28;20069;-74
2024/01/03 06:09:32;;;;;;;15.27;10.18;;;;;;;;;;6253024;28;20378;-74
2024/01/03 06:12:34;;;;;;;15.13;10.23;;;;;;;;;;6254262;28;20045;-75
2024/01/03 06:15:36;;;;;;;15.85;10.40;;;;;;;;;;6253029;28;20055;-74
2024/01/03 06:18:39;;;;;;;14.32;10.88;;;;;;;;;;6286149;28;20064;-74
2024/01/03 06:21:41;;;;;;;17.77;12.10;;;;;;;;;;6255827;28;20064;-75
2024/01/03 06:24:44;;;;;;;20.20;13.05;;;;;;;;;;6254491;28;20049;-74
2024/01/03 06:27:46;;;;;;;18.37;12.33;;;;;;;;;;6255503;28;20057;-74
2024/01/03 06:30:48;;;;;;;20.85;12.95;;;;;;;;;;6255964;28;20340;-74
2024/01/03 06:33:53;;;;;;;22.58;14.35;;;;;;;;;;6251236;28;20045;-74
2024/01/03 06:36:55;;;;;;;;;;;;;;;;;;6255097;28;20049;-74
2024/01/03 06:39:58;;;;;;;22.75;12.32;;;;;;;;;;6227888;28;20186;-75
2024/01/03 06:43:00;;;;;;;21.17;14.30;;;;;;;;;;6229499;28;20058;-74
2024/01/03 06:46:02;;;;;;;22.88;13.80;;;;;;;;;;6262080;28;20052;-75
2024/01/03 06:49:04;;;;;;;24.25;14.52;;;;;;;;;;6261558;28;20061;-75
2024/01/03 06:52:07;;;;;;;23.23;15.32;;;;;;;;;;6228840;28;20315;-75
2024/01/03 06:55:10;;;;;;;22.33;13.63;;;;;;;;;;6228620;28;20057;-75
2024/01/03 06:58:12;;;;;;;24.95;14.63;;;;;;;;;;6228791;28;20248;-75
2024/01/03 07:01:14;;;;;;;24.10;15.38;;;;;;;;;;6228198;28;20148;-74
2024/01/03 07:04:16;;;;;;;23.77;14.95;;;;;;;;;;6227543;28;20058;-75
2024/01/03 07:07:18;;;;;;;23.10;14.70;;;;;;;;;;6228475;28;20256;-74
2024/01/03 07:10:21;;;;;;;24.13;15.68;;;;;;;;;;6227876;28;20053;-74
2024/01/03 07:13:24;;;;;;;23.23;14.73;;;;;;;;;;6262384;28;20049;-75
2024/01/03 07:16:27;;;;;;;22.13;14.00;;;;;;;;;;6229147;28;20065;-75
2024/01/03 07:19:29;;;;;;;23.67;15.25;;;;;;;;;;6227117;28;20045;-74
2024/01/03 07:22:31;;;;;;;23.88;14.63;;;;;;;;;;6227860;28;20053;-75
2024/01/03 07:25:35;;;;;;;23.13;14.93;;;;;;;;;;6226778;28;20073;-74
2024/01/03 07:28:38;;;;;;;25.05;14.23;;;;;;;;;;6227051;28;20360;-74
2024/01/03 07:31:40;;;;;;;21.70;14.18;;;;;;;;;;6229395;28;20053;-74
2024/01/03 07:34:42;;;;;;;22.30;13.90;;;;;;;;;;6257590;28;20045;-75
2024/01/03 07:37:44;;;;;;;25.17;14.88;;;;;;;;;;6227788;28;20061;-75
2024/01/03 07:40:48;;;;;;;22.55;14.55;;;;;;;;;;6227375;28;20064;-75
2024/01/03 07:43:50;;;;;;;23.10;14.63;;;;;;;;;;6226929;28;20213;-74
2024/01/03 07:46:51;;;;;;;23.50;14.75;;;;;;;;;;6227568;28;20137;-74
2024/01/03 07:49:53;;;;;;;23.88;14.95;;;;;;;;;;6226914;28;20406;-75
2024/01/03 07:52:55;;;;;;;25.02;15.55;;;;;;;;;;6226920;28;20054;-75
2024/01/03 07:55:58;;;;;;;23.20;14.82;;;;;;;;;;6228567;28;20068;-75
2024/01/03 07:59:00;;;;;;;21.73;14.30;;;;;;;;;;6228157;28;20076;-75
2024/01/03 08:02:02;;;;;;;21.30;13.15;;;;;;;;;;6227577;28;20057;-73
2024/01/03 08:05:07;;;;;;;19.58;13.25;;;;;;;;;;6225348;28;20111;-74
2024/01/03 08:08:08;;;;;;;18.77;12.73;;;;;;;;;;6236058;28;20061;-75
2024/01/03 08:11:12;;;;;;;18.85;12.63;;;;;;;;;;6253126;28;20060;-75
2024/01/03 08:14:14;;;;;;;20.43;12.43;;;;;;;;;;6252424;28;20117;-74
2024/01/03 08:17:16;;;;;;;17.98;12.38;;;;;;;;;;6246591;28;20145;-74
2024/01/03 08:20:18;;;;;;;19.30;12.38;;;;;;;;;;6252655;28;20041;-75
2024/01/03 08:23:20;;;;;;;19.13;12.13;;;;;;;;;;6250949;28;20077;-74
2024/01/03 08:26:24;;;;;;;21.23;12.68;;;;;;;;;;6252996;28;20064;-74
2024/01/03 08:29:26;;;;;;;18.45;12.80;;;;;;;;;;6250724;28;20068;-74
2024/01/03 08:32:28;;;;;;;19.83;11.80;;;;;;;;;;6250799;28;20406;-75
2024/01/03 08:35:30;;;;;;;21.48;11.98;;;;;;;;;;6252096;28;20046;-74
2024/01/03 08:38:32;;;;;;;16.23;11.98;;;;;;;;;;6252546;28;20344;-75
2024/01/03 08:41:35;;;;;;;16.58;11.45;;;;;;;;;;6248936;28;20054;-74
2024/01/03 08:44:37;;;;;;;16.90;11.23;;;;;;;;;;6249545;28;20252;-75
2024/01/03 08:47:39;;;;;;;16.90;10.90;;;;;;;;;;6265166;28;20053;-74
2024/01/03 08:50:43;;;;;;;18.17;11.60;;;;;;;;;;6254273;28;20405;-75
2024/01/03 08:53:45;;;;;;;14.93;10.90;;;;;;;;;;6255079;28;20385;-75
2024/01/03 08:56:50;;;;;;;17.45;10.48;;;;;;;;;;6256758;28;20048;-75
2024/01/03 08:59:52;;;;;;;20.50;11.25;;;;;;;;;;6256253;28;20053;-75
2024/01/03 09:02:57;;;;;;;18.23;11.27;;;;;;;;;;6238455;28;20056;-74
2024/01/03 09:05:58;;;;;;;16.63;12.07;;;;;;;;;;6287341;28;20057;-74
2024/01/03 09:09:00;;;;;;;16.70;11.18;;;;;;;;;;6255568;28;20314;-74
2024/01/03 09:12:04;;;;;;;17.00;11.60;;;;;;;;;;6257356;28;20065;-75
2024/01/03 09:15:07;;;;;;;;;;;;;;;;;;6255295;28;20080;-75
2024/01/03 09:18:09;;;;;;;16.98;11.00;;;;;;;;;;6254520;28;19925;-75
2024/01/03 09:21:10;;;;;;;17.05;11.05;;;;;;;;;;6256025;28;20049;-75
2024/01/03 09:24:12;;;;;;;18.83;11.55;;;;;;;;;;6255371;28;20064;-74
2024/01/03 09:27:17;;;;;;;18.15;11.50;;;;;;;;;;6254274;28;20060;-74
2024/01/03 09:30:19;;;;;;;16.30;10.48;;;;;;;;;;6278409;28;20060;-73
2024/01/03 09:33:21;;;;;;;15.35;9.77;;;;;;;;;;6256581;28;20104;-75
2024/01/03 09:36:22;;;;;;;18.67;10.82;;;;;;;;;;6254067;28;20080;-74
2024/01/03 09:39:24;;;;;;;16.42;11.13;;;;;;;;;;6255360;28;20057;-75
2024/01/03 09:42:28;;;;;;;15.45;11.07;;;;;;;;;;6239300;28;20118;-75
2024/01/03 09:45:30;;;;;;;16.88;9.88;;;;;;;;;;6254637;28;20057;-74
2024/01/03 09:48:33;;;;;;;19.38;10.88;;;;;;;;;;6256449;28;20041;-74
2024/01/03 09:51:36;;;;;;;16.33;10.57;;;;;;;;;;6256127;28;20111;-74
2024/01/03 09:54:38;;;;;;;17.35;10.32;;;;;;;;;;6269267;28;20062;-74
2024/01/03 09:57:42;;;;;;;14.30;10.10;;;;;;;;;;6254439;28;20049;-75
2024/01/03 10:00:44;;;;;;;16.77;11.00;;;;;;;;;;6251724;28;20053;-74
2024/01/03 10:03:47;;;;;;;15.40;10.07;;;;;;;;;;6254214;28;20049;-74
2024/01/03 10:06:52;;;;;;;17.85;10.50;;;;;;;;;;6255377;28;20049;-74
2024/01/03 10:09:55;;;;;;;16.70;10.25;;;;;;;;;;6254616;28;20088;-75
2024/01/03 10:13:14;;;;;;;18.10;10.70;;;;;;;;;;6256121;28;20041;-74
2024/01/03 10:16:23;;;;;;;16.63;9.77;;;;;;;;;;6255808;28;20318;-75
2024/01/03 10:19:30;;;;;;;14.05;9.75;;;;;;;;;;6253591;28;20099;-75
2024/01/03 10:22:31;;;;;;;14.77;9.40;;;;;;;;;;6255457;28;20443;-74
2024/01/03 10:25:34;;;;;;;16.08;9.32;;;;;;;;;;6255249;28;20096;-74
2024/01/03 10:28:38;;;;;;;15.90;9.55;;;;;;;;;;6251403;28;20045;-74
2024/01/03 10:31:40;;;;;;;13.43;9.45;;;;;;;;;;6253592;28;20108;-74
2024/01/03 10:34:43;;;;;;;14.45;10.25;;;;;;;;;;6255066;28;20041;-73
2024/01/03 10:37:44;;;;;;;15.88;9.60;;;;;;;;;;6252660;28;20472;-74
2024/01/03 10:40:48;;;;;;;15.75;9.73;;;;;;;;;;6251835;28;20137;-75
2024/01/03 10:43:52;;;;;;;14.18;9.65;;;;;;;;;;6246642;28;20116;-75
2024/01/03 10:46:55;;;;;;;15.82;10.15;;;;;;;;;;6252059;28;20053;-74
2024/01/03 10:49:57;;;;;;;18.63;10.65;;;;;;;;;;6252853;28;20042;-75
2024/01/03 10:53:00;;;;;;;14.40;10.13;;;;;;;;;;6252946;28;20114;-74
2024/01/03 10:56:03;;;;;;;22.67;11.85;;;;;;;;;;6269856;28;20141;-75
2024/01/03 10:59:07;;;;;;;19.60;11.45;;;;;;;;;;6253968;28;20104;-74
2024/01/03 11:02:25;;;;;;;17.27;10.15;;;;;;;;;;6268562;28;20238;-75
2024/01/03 11:05:35;;;;;;;17.05;11.73;;;;;;;;;;6252167;28;20073;-75
2024/01/03 11:08:43;;;;;;;19.15;11.80;;;;;;;;;;6252352;28;20282;-75
2024/01/03 11:11:45;;;;;;;17.75;11.60;;;;;;;;;;6253215;28;20263;-75
2024/01/03 11:14:50;;;;;;;15.63;11.32;;;;;;;;;;6235968;28;20053;-75
2024/01/03 11:17:51;;;;;;;17.13;11.82;;;;;;;;;;6253569;28;20359;-75
2024/01/03 11:20:53;;;;;;;16.20;11.90;;;;;;;;;;6252186;28;20076;-75
2024/01/03 11:23:55;;;;;;;16.95;11.65;;;;;;;;;;6250588;28;20133;-75
2024/01/03 11:27:04;;;;;;;17.05;11.60;;;;;;;;;;6285553;28;20049;-75
2024/01/03 11:30:08;;;;;;;18.50;12.13;;;;;;;;;;6251668;28;20064;-75
2024/01/03 11:33:25;;;;;;;17.17;11.60;;;;;;;;;;6254448;28;20056;-75
2024/01/03 11:36:47;;;;;;;17.20;11.30;;;;;;;;;;6285784;28;20051;-74
2024/01/03 11:39:52;;;;;;;17.55;11.50;;;;;;;;;;6251012;28;20247;-74
2024/01/03 11:42:59;;;;;;;16.73;10.65;;;;;;;;;;6243520;28;20053;-75
2024/01/03 11:46:10;;;;;;;16.67;11.02;;;;;;;;;;6251101;28;20137;-76
2024/01/03 11:49:11;;;;;;;15.18;10.95;;;;;;;;;;6250564;28;20501;-74
2024/01/03 11:52:14;;;;;;;17.20;10.77;;;;;;;;;;6230588;28;20268;-74
2024/01/03 11:55:17;;;;;;;14.52;10.07;;;;;;;;;;6252655;28;20061;-74
2024/01/03 11:58:19;;;;;;;14.07;10.15;;;;;;;;;;6251687;28;20088;-75
2024/01/03 12:01:22;;;;;;;14.48;10.35;;;;;;;;;;6251972;28;20247;-76
2024/01/03 12:04:24;;;;;;;14.55;11.00;;;;;;;;;;6249987;28;20248;-75
2024/01/03 12:07:27;;;;;;;14.52;10.55;;;;;;;;;;6253153;28;20095;-74
2024/01/03 12:10:29;;;;;;;16.15;9.82;;;;;;;;;;6251981;28;20060;-75
2024/01/03 12:13:31;;;;;;;14.30;10.15;;;;;;;;;;6253173;28;20295;-74
2024/01/03 12:16:45;;;;;;;15.55;10.63;;;;;;;;;;6283644;28;20063;-74
2024/01/03 12:19:47;;;;;;;13.25;9.73;;;;;;;;;;6252693;28;20053;-75
2024/01/03 12:22:49;;;;;;;13.32;10.00;;;;;;;;;;6251539;28;20053;-75
2024/01/03 12:25:51;;;;;;;14.95;10.25;;;;;;;;;;6258763;28;20060;-75
2024/01/03 12:29:01;;;;;;;12.20;9.73;;;;;;;;;;6259751;28;20393;-75
2024/01/03 12:32:11;;;;;;;14.00;9.27;;;;;;;;;;6259888;28;20057;-74
2024/01/03 12:35:13;;;;;;;13.90;9.18;;;;;;;;;;6259671;28;20267;-75
2024/01/03 12:38:15;;;;;;;14.20;9.93;;;;;;;;;;6261252;28;20427;-75
2024/01/03 12:41:17;;;;;;;13.90;10.07;;;;;;;;;;6259808;28;20057;-75
2024/01/03 12:44:19;;;;;;;13.25;9.65;;;;;;;;;;6260683;28;20390;-75
2024/01/03 12:47:22;;;;;;;15.35;10.00;;;;;;;;;;6257966;28;20067;-75
2024/01/03 12:50:25;;;;;;;12.77;8.83;;;;;;;;;;6258201;28;20061;-75
2024/01/03 12:53:27;;;;;;;13.60;9.27;;;;;;;;;;6258005;28;20096;-74
2024/01/03 12:56:30;;;;;;;13.75;9.00;;;;;;;;;;6259117;28;20235;-74
2024/01/03 12:59:32;;;;;;;13.60;9.43;;;;;;;;;;6258012;28;20332;-74
2024/01/03 13:02:35;;;;;;;13.82;9.13;;;;;;;;;;6260142;28;20094;-75
2024/01/03 13:05:37;;;;;;;12.60;8.05;;;;;;;;;;6291612;28;20060;-75
2024/01/03 13:08:39;;;;;;;12.75;8.40;;;;;;;;;;6260081;28;20092;-75
2024/01/03 13:11:40;;;;;;;13.65;8.68;;;;;;;;;;6291303;28;20060;-75
2024/01/03 13:14:42;;;;;;;11.98;8.50;;;;;;;;;;6260311;28;20053;-75
2024/01/03 13:17:46;;;;;;;13.65;8.43;;;;;;;;;;6259646;28;20095;-75
2024/01/03 13:20:48;;;;;;;11.80;8.05;;;;;;;;;;6259506;28;20051;-75
2024/01/03 13:23:50;;;;;;;9.82;7.43;;;;;;;;;;6260293;28;20060;-75
2024/01/03 13:26:52;;;;;;;13.30;6.95;;;;;;;;;;6259169;28;20049;-76
2024/01/03 13:29:54;;;;;;;9.63;6.85;;;;;;;;;;6241313;28;20057;-75
2024/01/03 13:32:57;;;;;;;9.27;7.03;;;;;;;;;;6260466;28;20056;-74
2024/01/03 13:35:59;;;;;;;9.60;6.75;;;;;;;;;;6258327;28;20061;-76
2024/01/03 13:39:00;;;;;;;8.98;6.22;;;;;;;;;;6253493;28;20053;-76
2024/01/03 13:42:03;;;;;;;10.13;6.72;;;;;;;;;;6253998;28;20056;-75
2024/01/03 13:45:06;;;;;;;11.48;6.50;;;;;;;;;;6253814;28;20084;-74
2024/01/03 13:48:10;;;;;;;8.80;6.17;;;;;;;;;;6256485;28;20056;-76
2024/01/03 13:51:12;;;;;;;10.50;6.05;;;;;;;;;;6254754;28;20523;-75
2024/01/03 13:54:14;;;;;;;9.00;6.40;;;;;;;;;;6255118;28;20157;-73
2024/01/03 13:57:16;;;;;;;10.20;5.95;;;;;;;;;;6255357;28;20095;-74
2024/01/03 14:00:19;;;;;;;9.88;6.20;;;;;;;;;;6256004;28;20252;-75
2024/01/03 14:03:23;;;;;;;8.00;5.93;;;;;;;;;;6254895;28;20049;-75
2024/01/03 14:06:25;;;;;;;10.82;6.20;;;;;;;;;;6254215;28;20057;-75
2024/01/03 14:09:27;;;;;;;8.30;5.97;;;;;;;;;;6255081;28;20057;-75
2024/01/03 14:12:29;;;;;;;7.80;5.70;;;;;;;;;;6254510;28;20053;-75
2024/01/03 14:15:32;;;;;;;8.38;5.20;;;;;;;;;;6269290;28;20060;-74
2024/01/03 14:18:36;;;;;;;9.68;5.57;;;;;;;;;;6252838;28;20067;-76
2024/01/03 14:21:41;;;;;;;9.20;5.45;;;;;;;;;;6254123;28;20200;-75
2024/01/03 14:24:43;;;;;;;7.43;4.97;;;;;;;;;;6254987;28;20385;-75
2024/01/03 14:27:45;;;;;;;7.75;5.05;;;;;;;;;;6251938;28;20645;-75
2024/01/03 14:30:47;;;;;;;12.65;5.15;;;;;;;;;;6254689;28;20351;-75
2024/01/03 14:33:50;;;;;;;10.98;5.07;;;;;;;;;;6254773;28;20049;-75
2024/01/03 14:37:05;;;;;;;5.43;3.90;;;;;;;;;;6254323;28;20103;-75
2024/01/03 14:40:14;;;;;;;7.88;4.43;;;;;;;;;;6253620;28;20045;-75
2024/01/03 14:43:30;;;;;;;10.48;5.00;;;;;;;;;;6253503;28;20288;-75
2024/01/03 14:46:34;;;;;;;8.65;4.45;;;;;;;;;;6254227;28;20053;-76
2024/01/03 14:49:38;;;;;;;7.80;5.30;;;;;;;;;;6250114;28;20049;-75
2024/01/03 14:52:41;;;;;;;10.57;6.43;;;;;;;;;;6253411;28;20232;-75
2024/01/03 14:55:43;;;;;;;11.35;6.22;;;;;;;;;;6251172;28;20049;-74
2024/01/03 14:58:46;;;;;;;10.15;6.35;;;;;;;;;;6252019;28;20390;-76
2024/01/03 15:01:49;;;;;;;11.88;7.65;;;;;;;;;;6255426;28;20052;-74
2024/01/03 15:04:52;;;;;;;10.38;7.90;;;;;;;;;;6254432;28;20053;-74
2024/01/03 15:07:55;;;;;;;12.63;7.72;;;;;;;;;;6251322;28;20060;-75
2024/01/03 15:10:57;;;;;;;10.77;8.00;;;;;;;;;;6281695;28;20063;-74
2024/01/03 15:13:59;;;;;;;13.80;8.43;;;;;;;;;;6253482;28;20402;-74
2024/01/03 15:17:01;;;;;;;11.98;7.97;;;;;;;;;;6233572;28;20056;-74
2024/01/03 15:20:07;;;;;;;15.27;8.93;;;;;;;;;;6251990;28;20280;-74
2024/01/03 15:23:09;;;;;;;14.82;8.82;;;;;;;;;;6253318;28;20049;-75
2024/01/03 15:26:11;;;;;;;15.35;8.02;;;;;;;;;;6246755;28;20919;-75
2024/01/03 15:29:15;;;;;;;11.57;8.57;;;;;;;;;;6245176;28;20053;-75
2024/01/03 15:32:19;;;;;;;12.82;8.57;;;;;;;;;;6249398;28;20053;-74
2024/01/03 15:35:24;;;;;;;15.38;9.32;;;;;;;;;;6233905;28;20371;-75
2024/01/03 15:38:26;;;;;;;11.90;8.43;;;;;;;;;;6246682;28;20540;-76
2024/01/03 15:41:28;;;;;;;13.50;8.57;;;;;;;;;;6250184;28;20116;-75
2024/01/03 15:44:36;;;;;;;12.82;8.55;;;;;;;;;;6251568;28;20360;-74
2024/01/03 15:47:40;;;;;;;14.70;8.48;;;;;;;;;;6250943;28;20049;-75
2024/01/03 15:50:46;;;;;;;;;;;;;;;;;;6252885;28;20064;-74
2024/01/03 15:53:48;;;;;;;11.95;7.88;;;;;;;;;;6253644;28;20838;-74
2024/01/03 15:56:50;;;;;;;14.05;8.57;;;;;;;;;;6250084;28;20053;-76
2024/01/03 15:59:53;;;;;;;13.75;9.38;;;;;;;;;;6252149;28;20049;-74
2024/01/03 16:02:55;;;;;;;15.05;8.23;;;;;;;;;;6250887;28;20268;-74
2024/01/03 16:05:59;;;;;;;13.57;8.52;;;;;;;;;;6233622;28;20049;-74
2024/01/03 16:09:00;;;;;;;14.57;8.83;;;;;;;;;;6251071;28;20057;-74
2024/01/03 16:12:02;;;;;;;16.15;9.07;;;;;;;;;;6264610;28;20304;-75
2024/01/03 16:15:05;;;;;;;14.90;8.13;;;;;;;;;;6251291;28;20061;-75
2024/01/03 16:18:07;;;;;;;19.73;9.02;;;;;;;;;;6251585;28;20080;-73
2024/01/03 16:21:11;;;;;;;13.13;7.85;;;;;;;;;;6249640;28;20062;-75
2024/01/03 16:24:16;;;;;;;12.85;8.32;;;;;;;;;;6272427;28;20270;-74
2024/01/03 16:27:18;;;;;;;11.25;7.78;;;;;;;;;;6252208;28;20407;-74
2024/01/03 16:30:20;;;;;;;12.27;7.95;;;;;;;;;;6250731;28;20049;-74
2024/01/03 16:33:22;;;;;;;13.70;7.65;;;;;;;;;;6248458;28;20049;-74
2024/01/03 16:36:26;;;;;;;12.32;8.32;;;;;;;;;;6250601;28;20812;-74
2024/01/03 16:39:28;;;;;;;11.68;7.68;;;;;;;;;;6250016;28;20056;-75
2024/01/03 16:42:34;;;;;;;12.10;7.88;;;;;;;;;;6252521;28;20058;-73
2024/01/03 16:45:36;;;;;;;12.07;7.68;;;;;;;;;;6267511;28;20060;-75
2024/01/03 16:48:38;;;;;;;10.52;7.00;;;;;;;;;;6249296;28;20050;-74
2024/01/03 16:51:41;;;;;;;19.58;7.78;;;;;;;;;;6252161;28;20042;-74
2024/01/03 16:54:43;;;;;;;12.43;7.57;;;;;;;;;;6250664;28;20053;-75
2024/01/03 16:57:45;;;;;;;14.30;7.35;;;;;;;;;;6251276;28;20056;-75
2024/01/03 17:00:50;;;;;;;14.38;8.02;;;;;;;;;;6247740;28;20061;-75
2024/01/03 17:03:52;;;;;;;15.13;8.23;;;;;;;;;;6281392;28;20123;-74
2024/01/03 17:06:55;;;;;;;10.45;7.38;;;;;;;;;;6284450;28;20065;-74
2024/01/03 17:10:02;;;;;;;12.97;7.80;;;;;;;;;;6251753;28;20049;-74
2024/01/03 17:13:05;;;;;;;13.32;7.88;;;;;;;;;;6251499;28;21059;-75
2024/01/03 17:16:12;;;;;;;12.57;7.57;;;;;;;;;;6254777;28;20168;-74
2024/01/03 17:19:14;;;;;;;13.75;7.82;;;;;;;;;;6255954;28;20069;-74
2024/01/03 17:22:18;;;;;;;16.88;8.27;;;;;;;;;;6257448;28;20058;-74
2024/01/03 17:25:20;;;;;;;14.40;8.13;;;;;;;;;;6254981;28;20065;-76
2024/01/03 17:28:25;;;;;;;23.13;10.25;;;;;;;;;;6254537;28;20535;-75
2024/01/03 17:31:26;;;;;;;19.10;12.05;;;;;;;;;;6257188;28;20119;-74
2024/01/03 17:34:28;;;;;;;23.95;13.43;;;;;;;;;;6254531;28;20041;-75
2024/01/03 17:37:31;;;;;;;24.65;13.68;;;;;;;;;;6256350;28;20052;-74
2024/01/03 17:40:33;;;;;;;22.02;13.07;;;;;;;;;;6255434;28;20053;-74
2024/01/03 17:43:36;;;;;;;24.60;14.95;;;;;;;;;;6254619;28;20060;-75
2024/01/03 17:46:38;;;;;;;27.40;16.23;;;;;;;;;;6256284;28;20255;-74
2024/01/03 17:49:40;;;;;;;26.05;15.70;;;;;;;;;;6254356;28;20057;-74
2024/01/03 17:52:45;;;;;;;25.08;16.42;;;;;;;;;;6254279;28;20046;-81
2024/01/03 17:55:46;;;;;;;26.23;16.75;;;;;;;;;;6253669;28;20086;-74